Impacts METAR Board
IDs:

KMCO - Orlando Intl, FL, US

Updated at: 0900 UTC 19 Jul 2018
Potential Impact None Slight Moderate High
Time 18/21Z 18/22Z 18/23Z 19/00Z 19/01Z 19/02Z 19/03Z 19/04Z 19/05Z 19/06Z 19/07Z 19/08Z 19/09Z
Temp78 79 80 79 78 77 77 77 77 77 77 77 77
Dewpt76 76 76 76 76 75 76 76 76 77 77 77 77
Altim30.01 29.99 29.98 29.98 29.98 29.99 30.01 30.01 30.01 30.00 29.98 29.97 29.97
VIS10 10 10 10 10 10 10 10 10 10 10 10 10
CIG150 250 250 200 250 190 210 -- -- -- -- -- --
CoverOVCBKNBKNBKNBKNBKNOVCSCTSCTSCTSCTFEWFEW
FltCatVFRVFRVFRVFRVFRVFRVFRVFRVFRVFRVFRVFRVFR
WX--------------------------
WDir002001700180200170170170160190180
WSpd0 0 4 5 0 3 4 6 4 5 6 5 6
WGst-- -- -- -- -- -- -- -- -- -- -- -- --
Raw hourly METARs
KMCO 182053Z 00000KT 10SM FEW070 FEW100 OVC150 26/24 A3001 RMK AO2 RAE20 SLP161 P0000 60004 T02560244 58011
KMCO 182153Z 00000KT 10SM FEW030 FEW100 SCT150 BKN250 26/24 A2999 RMK AO2 SLP154 T02610244
KMCO 182253Z 20004KT 10SM FEW030 FEW070 SCT170 BKN250 27/24 A2998 RMK AO2 SLP150 T02670244
KMCO 182353Z 17005KT 10SM FEW030 FEW070 SCT170 BKN200 26/24 A2998 RMK AO2 SLP151 60004 T02610244 10267 20244 55009
KMCO 190053Z 00000KT 10SM FEW070 SCT180 BKN250 26/24 A2998 RMK AO2 SLP151 T02560244
KMCO 190153Z 18003KT 10SM BKN190 BKN250 25/24 A2999 RMK AO2 SLP153 T02500239
KMCO 190253Z 20004KT 10SM OVC210 25/24 A3001 RMK AO2 SLP159 T02500244 53008
KMCO 190353Z 17006KT 10SM SCT210 25/24 A3001 RMK AO2 SLP160 T02500244
KMCO 190453Z 17004KT 10SM FEW035 SCT210 25/24 A3001 RMK AO2 SLP162 T02500244 403220239
KMCO 190553Z 17005KT 10SM FEW035 SCT250 25/25 A3000 RMK AO2 SLP158 T02500250 10256 20250 58001
KMCO 190653Z 16006KT 10SM FEW027 FEW060 SCT210 25/25 A2998 RMK AO2 SLP150 T02500250
KMCO 190753Z 19005KT 10SM FEW030 FEW060 FEW250 25/25 A2997 RMK AO2 SLP147 T02500250
KMCO 190853Z 18006KT 10SM FEW060 25/25 A2997 RMK AO2 SLP146 T02500250 56012



Page loaded:  09:46 UTC  |   02:46 AM Pacific  |   03:46 AM Mountain  |   04:46 AM Central  |   05:46 AM Eastern

 

ADVISORIES

FORECASTS

FORECASTS

OBSERVATIONS

USER TOOLS

ABOUT US